Northport, Nebraska
Current Conditions -  °F | °C
As of 9:53 PM on Friday 28 Nov 2014 (Local Time) from KAIA Reporting Station
Clear Clear  
Wind Chill: 31°   Ceiling: Unl
Heat Index: 38°   Visibility: 10mi
Dew Point: 19°   Wind: 10mph
Humidity: 47%   Direction: 230°SW
Pressure: 29.66"   Gusts: NA
Location:  41.7379°N, 102.935°W
Report Text: KAIA 290453Z AUTO 23009KT 10SM CLR 03/M07 A2966 RMK AO2 SLP032 T00331072
Loading
Personal Weather Stations






























Interactive Weather Map New forecast layout! Learn more

10-Day Weather Forecast

Advertisements
Track Severe Weather on mobile